• Join FlightAware (Why Join?)
  • Login
  • US Flag 
11:03PM EST


 

Airport Tracker/Info


-or-


 

Live Flight TrackerFlight Track Log ✈ SWA1886 ✈ 18-May-2012 ✈ KHOU - KTUL

Flight Track Log - Related Links

Times and Time Zones

All times are in EDT time to prevent confusion due to time zone crossing. See the SWA1886 flight status page for this flight to view local times or setup timezone preferences in your user account.

Time Position Orientation Groundspeed Altitude Reporting Facility
EDT Latitude Longitude Course Direction KTS MPH feet Rate Location/Type
10:02PM 29.6306 -95.2672 347° North 162 186 900  Level Houston Center
10:06PM 29.8958 -95.3361 337° Northwest 304 350 11,400 2,580 Climbing Houston Center
10:07PM 29.9844 -95.3803 337° Northwest 322 371 14,200 2,580 Climbing Houston Center
10:08PM 30.0769 -95.4267 340° North 339 390 16,600 2,280 Climbing Houston Center
10:09PM 30.1739 -95.4664 343° North 349 402 18,900 2,100 Climbing Houston Center
10:10PM 30.2731 -95.5011 342° North 363 418 20,900 2,040 Climbing Houston Center
10:11PM 30.3764 -95.5411 342° North 373 429 23,000 1,860 Climbing Houston Center
10:12PM 30.4775 -95.5789 343° North 380 437 24,700 1,560 Climbing Houston Center
10:13PM 30.5850 -95.6167 345° North 380 437 26,200 1,560 Climbing Houston Center
10:14PM 30.6944 -95.6500 351° North 392 451 27,800 1,860 Climbing Houston Center
10:15PM 30.8736 -95.6831 349° North 419 482 31,000 1,680 Climbing Fort Worth Center
10:16PM 30.9722 -95.7053 351° North 406 467 32,100 1,260 Climbing Fort Worth Center
10:17PM 31.0808 -95.7253 351° North 393 452 33,600 1,380 Climbing Fort Worth Center
10:18PM 31.1856 -95.7453 350° North 388 447 34,900 1,200 Climbing Fort Worth Center
10:19PM 31.2925 -95.7675 351° North 389 448 36,000 840 Climbing Fort Worth Center
10:20PM 31.4011 -95.7875 351° North 394 453 36,600 480 Climbing Fort Worth Center
10:21PM 31.5081 -95.8075 350° North 394 453 37,000 180 Climbing Fort Worth Center
10:22PM 31.6167 -95.8300 347° North 394 453 37,000 -360 Level Fort Worth Center
10:23PM 31.7403 -95.8647 351° North 399 459 36,300 -900 Descending Fort Worth Center
10:24PM 31.8492 -95.8847 353° North 399 459 35,300 -660 Descending Fort Worth Center
10:25PM 31.9581 -95.9000 350° North 393 452 35,000 -180 Descending Fort Worth Center
10:26PM 32.0689 -95.9228 349° North 393 452 35,000  Level Fort Worth Center
10:27PM 32.1608 -95.9433 351° North 386 444 35,000  Level Fort Worth Center
10:28PM 32.2719 -95.9636 349° North 391 450 35,000  Level Fort Worth Center
10:29PM 32.3764 -95.9867 350° North 391 450 35,000  Level Fort Worth Center
10:30PM 32.4853 -96.0094 350° North 391 450 35,000  Level Fort Worth Center
10:31PM 32.5900 -96.0303 350° North 391 450 35,000  Level Fort Worth Center
10:32PM 32.6967 -96.0531 350° North 386 444 35,000  Level Fort Worth Center
10:33PM 32.8033 -96.0764 350° North 392 451 35,000  Level Fort Worth Center
10:34PM 32.9081 -96.0994 350° North 392 451 35,000  Level Fort Worth Center
10:35PM 33.0147 -96.1228 350° North 392 451 35,000  Level Fort Worth Center
10:36PM 33.1317 -96.1483 351° North 392 451 35,000  Level Fort Worth Center
10:37PM 33.2406 -96.1692 348° North 392 451 35,000  Level Fort Worth Center
10:38PM 33.3453 -96.1950 351° North 385 443 35,000  Level Fort Worth Center
10:39PM 33.4539 -96.2158 353° North 390 449 35,000  Level Fort Worth Center
10:40PM 33.5606 -96.2319 North 390 449 35,000  Level Fort Worth Center
10:41PM 33.6711 -96.2156 North 384 442 35,000  Level Fort Worth Center
10:42PM 33.7814 -96.1964 North 389 448 35,000  Level Fort Worth Center
10:43PM 33.8939 -96.1800 North 394 453 35,000  Level Fort Worth Center
10:44PM 34.0044 -96.1608 North 400 460 35,000  Level Fort Worth Center
10:45PM 34.1064 -96.1442 North 394 453 35,000  Level Fort Worth Center
10:46PM 34.2189 -96.1250 North 389 448 35,000  Level Fort Worth Center
10:47PM 34.3314 -96.1058 North 389 448 35,000  Level Fort Worth Center
10:48PM 34.4419 -96.0889 North 395 455 35,000  Level Fort Worth Center
10:49PM 34.5522 -96.0672 North 400 460 35,000 -1,320 Level Fort Worth Center
10:50PM 34.6667 -96.0478 North 405 466 32,400 -2,580 Descending Fort Worth Center
10:51PM 34.7564 -96.0336 North 405 466 29,900 -2,460 Descending Fort Worth Center
10:52PM 34.8811 -96.0114 North 405 466 27,500 -2,400 Descending Fort Worth Center
10:53PM 34.9894 -95.9944 North 405 466 25,200 -2,340 Descending Fort Worth Center
10:54PM 35.0956 -95.9772 North 398 458 22,900 -1,860 Descending Fort Worth Center
10:55PM 35.1997 -95.9656 North 385 443 21,500 -1,680 Descending Fort Worth Center
10:57PM 35.3656 -95.9528 North 366 421 18,700 -2,040 Descending Kansas City Center
10:58PM 35.4575 -95.9442 North 360 414 16,600 -2,280 Descending Kansas City Center
10:59PM 35.5597 -95.9358 18° North 347 399 14,200 -2,160 Descending Kansas City Center
11:00PM 35.6519 -95.8992 15° North 339 390 12,100 -2,040 Descending Kansas City Center
11:01PM 35.7483 -95.8675 16° North 342 394 10,100 -1,560 Descending Kansas City Center
11:02PM 35.8383 -95.8358 13° North 309 356 8,800 -1,380 Descending Kansas City Center
11:03PM 35.9306 -95.8092 North 297 342 7,100 -1,500 Descending Kansas City Center
11:04PM 36.0056 -95.8028 North 301 346 5,800 -1,200 Descending Kansas City Center
11:05PM 36.0831 -95.7961 North 298 343 5,000 -420 Descending Kansas City Center
11:06PM 36.1686 -95.7875 North 270 311 5,000 -600 Level Kansas City Center
11:07PM 36.2436 -95.7833 353° North 256 295 3,800 -1,140 Descending Kansas City Center
11:08PM 36.3061 -95.7922 257° West 201 231 2,600 -960 Descending Kansas City Center
11:09PM 36.2972 -95.8411 224° Southwest 146 168 1,800 -360 Descending Kansas City Center
11:10PM 36.2697 -95.8742 224° Southwest 139 160 1,900 60 Climbing Kansas City Center